KLM3E ZSPD-EHAM
Flight info
| Callsign | KLM3E |
|---|---|
| Flight time | N/A |
| Altitude | 30100 |
| Route | PIK95D/35R PIKAS G330 PIMOL A593 DALIM W157 BEKDO/K0907S0950 W157 VYK G212 SOTMU/K0893S0920 B339 ASILA A575 UPREK W28 RURNU/K0904S0980 W28 LAGEB W66 NUKTI B215 KABDO W119 GOBOK A343 IGLOT/K0896S1040 A343 RULAD/K0896F340 M610 ARBOL Z621 ELAHA N147 OTBOR/N0484F340 A480 TIMGA B476 METKA L88 NIJAT/N0484F360 L88 RASAM N199 EDATA M11 REBLO UM11 CRM UL746 ODERO DCT OPT DCT IRLOX DCT EMPOS DCT FOGRE/N0473F380 DCT TEKVI DCT BERVA DCT PEPIK DCT LIKSA DCT ELMEK DCT VEXIL DCT KATCE DCT NORKU |
| Aircraft | B772/H-SDE2E3FGHIJ5LORVWXY/LB1D1 |
Departure
| Time | N/A |
|---|---|
| Airport | Shanghai Pudong International Airport (ZSPD) |
Arrival
| Time | 2026-05-04 03:39 |
|---|---|
| Airport | Amsterdam Airport Schiphol (EHAM) |
| Time | Latitude | Longitude | Altitude | Speed | Heading |
|---|---|---|---|---|---|
| 2026-05-04 02:50 | 51.27270 | 10.28156 | 35988 ft | 460 kts | 292° |
| 2026-05-04 02:50 | 51.30060 | 10.18928 | 35990 ft | 460 kts | 291° |
| 2026-05-04 02:51 | 51.32833 | 10.09699 | 35986 ft | 461 kts | 291° |
| 2026-05-04 02:51 | 51.35233 | 10.01743 | 35985 ft | 461 kts | 291° |
| 2026-05-04 02:52 | 51.38027 | 9.92484 | 35984 ft | 462 kts | 291° |
| 2026-05-04 02:52 | 51.40816 | 9.83214 | 35978 ft | 462 kts | 291° |
| 2026-05-04 02:53 | 51.43598 | 9.73934 | 35976 ft | 462 kts | 291° |
| 2026-05-04 02:53 | 51.46375 | 9.64633 | 35979 ft | 462 kts | 291° |
| 2026-05-04 02:54 | 51.49143 | 9.55322 | 35967 ft | 462 kts | 291° |
| 2026-05-04 02:54 | 51.51903 | 9.46003 | 35975 ft | 462 kts | 291° |
| 2026-05-04 02:55 | 51.56031 | 9.31999 | 35973 ft | 462 kts | 291° |
| 2026-05-04 02:56 | 51.58751 | 9.22726 | 35972 ft | 462 kts | 291° |
| 2026-05-04 02:56 | 51.61480 | 9.13386 | 35973 ft | 462 kts | 291° |
| 2026-05-04 02:57 | 51.64226 | 9.03952 | 35975 ft | 461 kts | 291° |
| 2026-05-04 02:57 | 51.66939 | 8.94590 | 35974 ft | 461 kts | 291° |
| 2026-05-04 02:58 | 51.69645 | 8.85221 | 35971 ft | 461 kts | 290° |
| 2026-05-04 02:58 | 51.72337 | 8.75858 | 35970 ft | 460 kts | 290° |
| 2026-05-04 02:59 | 51.75021 | 8.66489 | 35969 ft | 460 kts | 290° |
| 2026-05-04 02:59 | 51.77692 | 8.57128 | 35971 ft | 459 kts | 290° |
| 2026-05-04 03:00 | 51.80338 | 8.47819 | 35969 ft | 458 kts | 290° |
| 2026-05-04 03:00 | 51.82987 | 8.38461 | 35970 ft | 457 kts | 290° |
| 2026-05-04 03:01 | 51.85623 | 8.29111 | 35972 ft | 457 kts | 290° |
| 2026-05-04 03:01 | 51.88250 | 8.19755 | 35979 ft | 456 kts | 290° |
| 2026-05-04 03:02 | 51.90864 | 8.10411 | 35976 ft | 456 kts | 290° |
| 2026-05-04 03:02 | 51.93487 | 8.00997 | 35972 ft | 455 kts | 290° |
| 2026-05-04 03:03 | 51.96064 | 7.91708 | 35962 ft | 454 kts | 290° |
| 2026-05-04 03:03 | 51.98664 | 7.82300 | 35967 ft | 454 kts | 290° |
| 2026-05-04 03:04 | 52.01220 | 7.73012 | 35971 ft | 453 kts | 289° |
| 2026-05-04 03:04 | 52.03783 | 7.63663 | 35970 ft | 453 kts | 289° |
| 2026-05-04 03:05 | 52.06335 | 7.54320 | 35961 ft | 446 kts | 289° |
| 2026-05-04 03:05 | 52.07576 | 7.49776 | 35638 ft | 438 kts | 289° |
| 2026-05-04 03:05 | 52.08805 | 7.45254 | 34941 ft | 436 kts | 289° |
| 2026-05-04 03:05 | 52.10027 | 7.40743 | 34162 ft | 437 kts | 289° |
| 2026-05-04 03:06 | 52.11252 | 7.36208 | 33205 ft | 438 kts | 289° |
| 2026-05-04 03:06 | 52.12477 | 7.31666 | 32237 ft | 439 kts | 289° |
| 2026-05-04 03:06 | 52.13705 | 7.27115 | 31281 ft | 438 kts | 288° |
| 2026-05-04 03:06 | 52.14925 | 7.22582 | 30436 ft | 435 kts | 288° |
| 2026-05-04 03:07 | 52.16131 | 7.18098 | 29719 ft | 429 kts | 288° |
| 2026-05-04 03:07 | 52.17315 | 7.13682 | 28940 ft | 423 kts | 288° |
| 2026-05-04 03:07 | 52.18480 | 7.09323 | 28262 ft | 417 kts | 288° |
| 2026-05-04 03:07 | 52.19628 | 7.05024 | 27567 ft | 411 kts | 288° |
| 2026-05-04 03:08 | 52.20759 | 7.00782 | 26897 ft | 406 kts | 288° |
| 2026-05-04 03:08 | 52.21990 | 6.96654 | 26221 ft | 406 kts | 296° |
| 2026-05-04 03:08 | 52.23733 | 6.93014 | 25593 ft | 408 kts | 304° |
| 2026-05-04 03:08 | 52.25579 | 6.89477 | 24955 ft | 414 kts | 304° |
| 2026-05-04 03:09 | 52.27458 | 6.85822 | 24296 ft | 425 kts | 304° |
| 2026-05-04 03:09 | 52.29345 | 6.82091 | 23600 ft | 425 kts | 304° |
| 2026-05-04 03:09 | 52.30581 | 6.79621 | 23090 ft | 423 kts | 303° |
| 2026-05-04 03:09 | 52.32428 | 6.75908 | 22351 ft | 418 kts | 304° |
| 2026-05-04 03:10 | 52.34245 | 6.72248 | 21692 ft | 413 kts | 304° |
| 2026-05-04 03:10 | 52.36046 | 6.68618 | 21035 ft | 408 kts | 304° |
| 2026-05-04 03:10 | 52.37851 | 6.64977 | 20394 ft | 404 kts | 304° |
| 2026-05-04 03:10 | 52.39590 | 6.61465 | 19778 ft | 401 kts | 304° |
| 2026-05-04 03:11 | 52.41336 | 6.57934 | 19174 ft | 397 kts | 304° |
| 2026-05-04 03:11 | 52.43067 | 6.54428 | 18583 ft | 394 kts | 305° |
| 2026-05-04 03:11 | 52.44785 | 6.50947 | 17966 ft | 392 kts | 305° |
| 2026-05-04 03:11 | 52.46317 | 6.47356 | 17307 ft | 377 kts | 292° |
| 2026-05-04 03:12 | 52.47103 | 6.43335 | 16727 ft | 367 kts | 275° |
| 2026-05-04 03:12 | 52.47334 | 6.39235 | 16178 ft | 359 kts | 271° |
| 2026-05-04 03:12 | 52.47509 | 6.35168 | 15633 ft | 357 kts | 271° |
| 2026-05-04 03:12 | 52.47683 | 6.31125 | 15097 ft | 354 kts | 272° |
| 2026-05-04 03:13 | 52.47864 | 6.27104 | 14562 ft | 352 kts | 272° |
| 2026-05-04 03:13 | 52.48051 | 6.23109 | 14040 ft | 351 kts | 272° |
| 2026-05-04 03:13 | 52.48241 | 6.19122 | 13484 ft | 349 kts | 272° |
| 2026-05-04 03:13 | 52.48432 | 6.15167 | 12905 ft | 347 kts | 272° |
| 2026-05-04 03:14 | 52.48624 | 6.11236 | 12372 ft | 344 kts | 272° |
| 2026-05-04 03:14 | 52.48811 | 6.07339 | 11855 ft | 341 kts | 272° |
| 2026-05-04 03:14 | 52.48996 | 6.03473 | 11342 ft | 339 kts | 272° |
| 2026-05-04 03:14 | 52.49177 | 5.99651 | 10861 ft | 336 kts | 272° |
| 2026-05-04 03:15 | 52.49354 | 5.95898 | 10723 ft | 322 kts | 272° |
| 2026-05-04 03:15 | 52.49523 | 5.92308 | 10575 ft | 309 kts | 272° |
| 2026-05-04 03:15 | 52.49685 | 5.88837 | 10278 ft | 305 kts | 272° |
| 2026-05-04 03:15 | 52.49847 | 5.85291 | 9633 ft | 320 kts | 272° |
| 2026-05-04 03:16 | 52.50012 | 5.81680 | 9573 ft | 314 kts | 272° |
| 2026-05-04 03:16 | 52.50174 | 5.78135 | 9530 ft | 308 kts | 272° |
| 2026-05-04 03:16 | 52.50332 | 5.74661 | 9485 ft | 303 kts | 272° |
| 2026-05-04 03:16 | 52.50487 | 5.71234 | 9444 ft | 298 kts | 272° |
| 2026-05-04 03:17 | 52.50638 | 5.67870 | 9404 ft | 293 kts | 272° |
| 2026-05-04 03:17 | 52.50786 | 5.64561 | 9363 ft | 288 kts | 272° |
| 2026-05-04 03:17 | 52.50930 | 5.61304 | 9333 ft | 284 kts | 272° |
| 2026-05-04 03:17 | 52.51062 | 5.58142 | 9288 ft | 276 kts | 270° |
| 2026-05-04 03:18 | 52.50801 | 5.55114 | 9249 ft | 263 kts | 251° |
| 2026-05-04 03:18 | 52.50194 | 5.52324 | 9256 ft | 258 kts | 250° |
| 2026-05-04 03:18 | 52.49585 | 5.49563 | 9257 ft | 257 kts | 250° |
| 2026-05-04 03:18 | 52.48979 | 5.46806 | 9252 ft | 257 kts | 250° |
| 2026-05-04 03:19 | 52.48373 | 5.44038 | 9254 ft | 258 kts | 250° |
| 2026-05-04 03:19 | 52.47766 | 5.41259 | 9257 ft | 259 kts | 250° |
| 2026-05-04 03:19 | 52.47160 | 5.38476 | 9246 ft | 260 kts | 250° |
| 2026-05-04 03:19 | 52.46548 | 5.35669 | 9157 ft | 263 kts | 250° |
| 2026-05-04 03:20 | 52.45958 | 5.32956 | 9045 ft | 262 kts | 250° |
| 2026-05-04 03:20 | 52.45352 | 5.30169 | 8931 ft | 258 kts | 250° |
| 2026-05-04 03:20 | 52.44752 | 5.27410 | 8842 ft | 255 kts | 250° |
| 2026-05-04 03:20 | 52.44157 | 5.24681 | 8745 ft | 254 kts | 250° |
| 2026-05-04 03:21 | 52.43562 | 5.21952 | 8646 ft | 254 kts | 250° |
| 2026-05-04 03:21 | 52.42969 | 5.19231 | 8550 ft | 254 kts | 250° |
| 2026-05-04 03:21 | 52.42374 | 5.16507 | 8455 ft | 254 kts | 250° |
| 2026-05-04 03:21 | 52.41778 | 5.13785 | 8354 ft | 254 kts | 250° |
| 2026-05-04 03:22 | 52.41180 | 5.11052 | 8259 ft | 255 kts | 250° |
| 2026-05-04 03:22 | 52.40581 | 5.08319 | 8163 ft | 255 kts | 250° |
| 2026-05-04 03:22 | 52.39980 | 5.05582 | 8070 ft | 256 kts | 250° |
| 2026-05-04 03:22 | 52.39377 | 5.02837 | 7955 ft | 256 kts | 250° |
| 2026-05-04 03:23 | 52.38772 | 5.00088 | 7850 ft | 256 kts | 250° |
| 2026-05-04 03:23 | 52.38168 | 4.97347 | 7753 ft | 256 kts | 250° |
| 2026-05-04 03:23 | 52.37564 | 4.94607 | 7653 ft | 256 kts | 250° |
| 2026-05-04 03:23 | 52.36959 | 4.91873 | 7551 ft | 255 kts | 250° |
| 2026-05-04 03:24 | 52.36356 | 4.89145 | 7457 ft | 255 kts | 250° |
| 2026-05-04 03:24 | 52.35753 | 4.86421 | 7349 ft | 254 kts | 250° |
| 2026-05-04 03:24 | 52.35151 | 4.83702 | 7255 ft | 254 kts | 250° |
| 2026-05-04 03:24 | 52.34549 | 4.80992 | 7165 ft | 251 kts | 250° |
| 2026-05-04 03:25 | 52.33962 | 4.78356 | 7054 ft | 242 kts | 250° |
| 2026-05-04 03:25 | 52.33396 | 4.75817 | 6956 ft | 233 kts | 250° |
| 2026-05-04 03:25 | 52.32640 | 4.73526 | 6955 ft | 230 kts | 236° |
| 2026-05-04 03:25 | 52.31589 | 4.71533 | 6952 ft | 235 kts | 223° |
| 2026-05-04 03:26 | 52.30343 | 4.69798 | 6937 ft | 235 kts | 221° |
| 2026-05-04 03:26 | 52.29096 | 4.68099 | 6931 ft | 233 kts | 221° |
| 2026-05-04 03:26 | 52.27865 | 4.66396 | 6930 ft | 231 kts | 222° |
| 2026-05-04 03:26 | 52.26622 | 4.64759 | 6922 ft | 228 kts | 212° |
| 2026-05-04 03:27 | 52.25072 | 4.64039 | 6946 ft | 240 kts | 182° |
| 2026-05-04 03:27 | 52.23423 | 4.64603 | 6946 ft | 247 kts | 157° |
| 2026-05-04 03:27 | 52.22067 | 4.66317 | 6927 ft | 250 kts | 129° |
| 2026-05-04 03:27 | 52.21357 | 4.68850 | 6932 ft | 252 kts | 99° |
| 2026-05-04 03:28 | 52.21497 | 4.71666 | 6933 ft | 252 kts | 68° |
| 2026-05-04 03:28 | 52.22469 | 4.73993 | 6947 ft | 250 kts | 38° |
| 2026-05-04 03:28 | 52.23993 | 4.75250 | 6947 ft | 246 kts | 8° |
| 2026-05-04 03:28 | 52.25683 | 4.75298 | 6940 ft | 242 kts | 343° |
| 2026-05-04 03:29 | 52.27216 | 4.74289 | 6948 ft | 238 kts | 335° |
| 2026-05-04 03:29 | 52.28807 | 4.73376 | 6954 ft | 245 kts | 339° |
| 2026-05-04 03:29 | 52.30446 | 4.72670 | 6921 ft | 244 kts | 356° |
| 2026-05-04 03:29 | 52.32089 | 4.73402 | 6946 ft | 252 kts | 31° |
| 2026-05-04 03:30 | 52.33459 | 4.75210 | 6905 ft | 256 kts | 40° |
| 2026-05-04 03:30 | 52.34795 | 4.77196 | 6648 ft | 261 kts | 41° |
| 2026-05-04 03:30 | 52.36130 | 4.79189 | 6401 ft | 259 kts | 40° |
| 2026-05-04 03:30 | 52.37459 | 4.81156 | 6142 ft | 257 kts | 40° |
| 2026-05-04 03:31 | 52.38778 | 4.83097 | 5891 ft | 254 kts | 40° |
| 2026-05-04 03:31 | 52.39954 | 4.85193 | 5632 ft | 248 kts | 61° |
| 2026-05-04 03:31 | 52.40403 | 4.87873 | 5399 ft | 244 kts | 86° |
| 2026-05-04 03:31 | 52.40481 | 4.90664 | 5197 ft | 248 kts | 87° |
| 2026-05-04 03:32 | 52.40569 | 4.93502 | 4958 ft | 251 kts | 87° |
| 2026-05-04 03:32 | 52.40659 | 4.96346 | 4700 ft | 250 kts | 87° |
| 2026-05-04 03:32 | 52.40748 | 4.99177 | 4457 ft | 248 kts | 87° |
| 2026-05-04 03:32 | 52.40837 | 5.01984 | 4219 ft | 246 kts | 87° |
| 2026-05-04 03:33 | 52.40800 | 5.04741 | 3890 ft | 241 kts | 105° |
| 2026-05-04 03:33 | 52.39975 | 5.07073 | 3586 ft | 238 kts | 140° |
| 2026-05-04 03:33 | 52.38582 | 5.08344 | 3446 ft | 224 kts | 165° |
| 2026-05-04 03:33 | 52.37100 | 5.08748 | 2964 ft | 211 kts | 178° |
| 2026-05-04 03:34 | 52.35679 | 5.08556 | 2364 ft | 203 kts | 205° |
| 2026-05-04 03:34 | 52.34481 | 5.07274 | 2182 ft | 208 kts | 218° |
| 2026-05-04 03:34 | 52.33377 | 5.05771 | 2011 ft | 203 kts | 233° |
| 2026-05-04 03:34 | 52.32889 | 5.03690 | 2004 ft | 196 kts | 261° |
| 2026-05-04 03:35 | 52.32662 | 5.01476 | 2006 ft | 200 kts | 262° |
| 2026-05-04 03:35 | 52.32515 | 4.99222 | 1999 ft | 199 kts | 266° |
| 2026-05-04 03:35 | 52.32432 | 4.96971 | 1991 ft | 195 kts | 267° |
| 2026-05-04 03:35 | 52.32361 | 4.94850 | 1845 ft | 181 kts | 267° |
| 2026-05-04 03:36 | 52.32292 | 4.92845 | 1587 ft | 171 kts | 267° |
| 2026-05-04 03:36 | 52.32228 | 4.90968 | 1385 ft | 159 kts | 267° |
| 2026-05-04 03:36 | 52.32168 | 4.89239 | 1171 ft | 145 kts | 267° |
| 2026-05-04 03:36 | 52.32112 | 4.87597 | 972 ft | 143 kts | 267° |
| 2026-05-04 03:37 | 52.32058 | 4.86025 | 776 ft | 135 kts | 267° |
| 2026-05-04 03:37 | 52.32006 | 4.84515 | 601 ft | 133 kts | 266° |
| 2026-05-04 03:37 | 52.31950 | 4.82990 | 429 ft | 135 kts | 265° |
| 2026-05-04 03:37 | 52.31893 | 4.81448 | 262 ft | 135 kts | 266° |
| 2026-05-04 03:38 | 52.31844 | 4.79912 | 92 ft | 136 kts | 265° |
| 2026-05-04 03:38 | 52.31793 | 4.78399 | 4 ft | 124 kts | 265° |
| 2026-05-04 03:38 | 52.31754 | 4.77160 | 2 ft | 92 kts | 266° |
| 2026-05-04 03:38 | 52.31722 | 4.76319 | 3 ft | 56 kts | 267° |
| 2026-05-04 03:39 | 52.31706 | 4.75882 | 3 ft | 21 kts | 266° |
| 2026-05-04 03:39 | 52.31698 | 4.75684 | 3 ft | 17 kts | 266° |
| 2026-05-04 03:39 | 52.31691 | 4.75488 | 1 ft | 17 kts | 268° |
| 2026-05-04 03:39 | 52.31685 | 4.75292 | 2 ft | 17 kts | 266° |
| 2026-05-04 03:40 | 52.31678 | 4.75095 | 1 ft | 17 kts | 266° |
| 2026-05-04 03:40 | 52.31670 | 4.74897 | 2 ft | 17 kts | 266° |
| 2026-05-04 03:40 | 52.31665 | 4.74767 | 4 ft | 17 kts | 262° |
| 2026-05-04 03:40 | 52.31576 | 4.74662 | 4 ft | 17 kts | 183° |
| 2026-05-04 03:41 | 52.31456 | 4.74673 | 4 ft | 17 kts | 174° |
| 2026-05-04 03:41 | 52.31405 | 4.74813 | 4 ft | 16 kts | 85° |
| 2026-05-04 03:41 | 52.31409 | 4.74931 | 3 ft | 16 kts | 87° |
| 2026-05-04 03:41 | 52.31416 | 4.75170 | 3 ft | 16 kts | 86° |
| 2026-05-04 03:42 | 52.31423 | 4.75349 | 3 ft | 16 kts | 86° |
| 2026-05-04 03:42 | 52.31429 | 4.75528 | 3 ft | 16 kts | 86° |
| 2026-05-04 03:42 | 52.31438 | 4.75766 | 3 ft | 16 kts | 86° |
| 2026-05-04 03:42 | 52.31444 | 4.75945 | 3 ft | 16 kts | 86° |
| 2026-05-04 03:43 | 52.31451 | 4.76123 | 4 ft | 14 kts | 86° |
| 2026-05-04 03:43 | 52.31428 | 4.76180 | 3 ft | 4 kts | 176° |
| 2026-05-04 03:43 | 52.31397 | 4.76171 | 3 ft | 4 kts | 184° |
| 2026-05-04 03:43 | 52.31374 | 4.76172 | 3 ft | 3 kts | 177° |
| 2026-05-04 03:44 | 52.31363 | 4.76173 | 3 ft | 1 kts | 177° |